createdAt,value
2018-10-05T00:00:08.647Z,90.28
2018-10-05T00:01:11.445Z,90.03
2018-10-05T00:02:14.241Z,90.18
2018-10-05T00:03:17.027Z,90.27
2018-10-05T00:04:20.244Z,90.39
2018-10-05T00:05:23.021Z,90.35
2018-10-05T00:06:25.766Z,90.41
2018-10-05T00:07:28.580Z,89.98
2018-10-05T00:08:31.480Z,90.21
2018-10-05T00:09:34.246Z,90.28
2018-10-05T00:10:37.473Z,90.40
2018-10-05T00:11:40.220Z,90.22
2018-10-05T00:12:43.106Z,90.29
2018-10-05T00:13:46.123Z,90.51
2018-10-05T00:14:49.233Z,90.25
2018-10-05T00:15:52.144Z,90.21
2018-10-05T00:16:54.955Z,90.44
2018-10-05T00:17:57.836Z,90.05
2018-10-05T00:19:01.093Z,90.06
2018-10-05T00:20:05.649Z,89.85
2018-10-05T00:21:08.823Z,89.57
2018-10-05T00:22:11.589Z,89.87
2018-10-05T00:23:14.643Z,89.62
2018-10-05T00:24:17.400Z,89.92
2018-10-05T00:25:20.920Z,90.08
2018-10-05T00:26:23.708Z,89.85
2018-10-05T00:27:26.524Z,89.70
2018-10-05T00:28:29.357Z,89.96
2018-10-05T00:29:32.482Z,89.63
2018-10-05T00:30:35.251Z,89.60
2018-10-05T00:31:38.346Z,90.14
2018-10-05T00:32:41.119Z,89.83
2018-10-05T00:33:44.910Z,89.66
2018-10-05T00:34:47.667Z,89.74
2018-10-05T00:35:51.029Z,90.02
2018-10-05T00:36:53.759Z,89.84
2018-10-05T00:37:56.603Z,89.98
2018-10-05T00:38:59.390Z,89.84
2018-10-05T00:40:02.200Z,89.56
2018-10-05T00:41:04.938Z,89.93
2018-10-05T00:42:08.182Z,89.81
2018-10-05T00:43:13.833Z,89.77
2018-10-05T00:44:16.584Z,89.23
2018-10-05T00:45:19.382Z,89.35
2018-10-05T00:46:23.066Z,89.09
2018-10-05T00:47:25.808Z,89.23
2018-10-05T00:48:29.757Z,89.40
2018-10-05T00:49:32.844Z,89.42
2018-10-05T00:50:36.089Z,89.35
2018-10-05T00:51:39.245Z,89.44
2018-10-05T00:52:42.118Z,89.51
2018-10-05T00:53:44.843Z,89.56
2018-10-05T00:54:48.133Z,89.79
2018-10-05T00:55:51.280Z,89.48
2018-10-05T00:56:54.075Z,89.36
2018-10-05T00:57:57.522Z,89.52
2018-10-05T00:59:00.779Z,89.11
2018-10-05T01:00:04.400Z,89.26
2018-10-05T01:01:07.994Z,89.06
2018-10-05T01:02:10.801Z,89.38
2018-10-05T01:03:13.559Z,89.35
2018-10-05T01:04:16.382Z,89.31
2018-10-05T01:05:19.188Z,89.35
2018-10-05T01:06:22.028Z,89.76
2018-10-05T01:07:25.192Z,89.27
2018-10-05T01:08:28.829Z,89.20
2018-10-05T01:09:33.174Z,88.93
2018-10-05T01:10:36.558Z,89.17
2018-10-05T01:11:39.341Z,89.07
2018-10-05T01:12:42.736Z,88.99
2018-10-05T01:13:46.020Z,88.83
2018-10-05T01:14:48.897Z,89.26
2018-10-05T01:15:51.903Z,89.33
2018-10-05T01:16:54.781Z,89.71
2018-10-05T01:17:58.837Z,89.45
2018-10-05T01:19:02.954Z,89.81
2018-10-05T01:20:06.276Z,89.65
2018-10-05T01:21:09.044Z,90.09
2018-10-05T01:22:12.421Z,89.48
2018-10-05T01:23:15.195Z,89.09
2018-10-05T01:24:18.395Z,89.31
2018-10-05T01:25:21.170Z,89.42
2018-10-05T01:26:24.364Z,89.39
2018-10-05T01:27:28.521Z,89.53
2018-10-05T01:28:31.277Z,89.42
2018-10-05T01:29:34.010Z,89.51
2018-10-05T01:30:36.925Z,89.63
2018-10-05T01:31:39.670Z,89.80
2018-10-05T01:32:45.465Z,89.74
2018-10-05T01:33:48.256Z,89.84
2018-10-05T01:34:51.074Z,89.35
2018-10-05T01:35:53.815Z,89.55
2018-10-05T01:36:56.602Z,89.22
2018-10-05T01:37:59.327Z,89.30
2018-10-05T01:39:02.560Z,89.47
2018-10-05T01:40:05.377Z,89.16
2018-10-05T01:41:08.143Z,88.96
2018-10-05T01:42:10.911Z,88.99
2018-10-05T01:43:13.651Z,88.81
2018-10-05T01:44:16.426Z,89.05
2018-10-05T01:45:19.610Z,89.03
2018-10-05T01:46:22.337Z,89.15
2018-10-05T01:47:25.507Z,88.81
2018-10-05T01:48:28.285Z,88.62
2018-10-05T01:49:31.028Z,88.65
2018-10-05T01:50:33.834Z,88.96
2018-10-05T01:51:37.678Z,88.65
2018-10-05T01:52:40.435Z,88.91
2018-10-05T01:53:43.274Z,89.05
2018-10-05T01:54:46.040Z,89.04
2018-10-05T01:55:48.796Z,89.31
2018-10-05T01:56:51.540Z,88.84
2018-10-05T01:57:54.779Z,89.31
2018-10-05T01:58:57.506Z,89.37
2018-10-05T02:00:00.261Z,89.25
2018-10-05T02:01:03.005Z,89.37
2018-10-05T02:02:05.784Z,89.63
2018-10-05T02:03:08.550Z,89.49
2018-10-05T02:04:11.707Z,89.64
2018-10-05T02:05:14.468Z,89.33
2018-10-05T02:06:17.396Z,89.59
2018-10-05T02:07:20.153Z,89.47
2018-10-05T02:08:22.935Z,89.33
2018-10-05T02:09:25.700Z,89.45
2018-10-05T02:10:28.759Z,89.53
2018-10-05T02:11:31.487Z,89.50
2018-10-05T02:12:34.379Z,89.14
2018-10-05T02:13:37.322Z,89.21
2018-10-05T02:14:40.719Z,89.37
2018-10-05T02:15:43.467Z,89.37
2018-10-05T02:16:46.647Z,89.34
2018-10-05T02:17:49.411Z,89.26
2018-10-05T02:18:52.180Z,89.10
2018-10-05T02:19:54.988Z,89.29
2018-10-05T02:20:57.769Z,89.39
2018-10-05T02:22:00.504Z,89.30
2018-10-05T02:23:03.648Z,89.26
2018-10-05T02:24:06.488Z,89.54
2018-10-05T02:25:09.231Z,89.49
2018-10-05T02:26:12.119Z,89.55
2018-10-05T02:27:14.952Z,89.61
2018-10-05T02:28:17.715Z,89.20
2018-10-05T02:29:21.014Z,89.66
2018-10-05T02:30:23.835Z,89.49
2018-10-05T02:31:26.618Z,89.86
2018-10-05T02:32:29.404Z,89.85
2018-10-05T02:33:32.252Z,89.90
2018-10-05T02:34:35.358Z,89.85
2018-10-05T02:35:38.540Z,89.54
2018-10-05T02:36:41.314Z,90.03
2018-10-05T02:37:44.089Z,90.00
2018-10-05T02:38:46.848Z,90.25
2018-10-05T02:39:49.594Z,90.18
2018-10-05T02:40:52.370Z,90.07
2018-10-05T02:41:55.585Z,89.94
2018-10-05T02:42:58.316Z,90.22
2018-10-05T02:44:01.061Z,89.72
2018-10-05T02:45:03.814Z,89.97
2018-10-05T02:46:06.550Z,90.03
2018-10-05T02:47:09.295Z,89.74
2018-10-05T02:48:12.071Z,90.18
2018-10-05T02:49:16.238Z,90.29
2018-10-05T02:50:19.796Z,90.21
2018-10-05T02:51:22.760Z,89.95
2018-10-05T02:52:25.825Z,90.22
2018-10-05T02:53:29.968Z,90.21
2018-10-05T02:54:32.745Z,90.54
2018-10-05T02:55:35.506Z,90.13
2018-10-05T02:56:38.305Z,90.30
2018-10-05T02:57:41.416Z,90.48
2018-10-05T02:58:44.221Z,90.68
2018-10-05T02:59:47.307Z,90.40
2018-10-05T03:00:51.707Z,90.75
2018-10-05T03:01:54.459Z,90.58
2018-10-05T03:02:57.365Z,90.44
2018-10-05T03:04:03.118Z,90.38
2018-10-05T03:05:06.149Z,90.57
2018-10-05T03:06:09.683Z,90.58
2018-10-05T03:07:12.456Z,90.00
2018-10-05T03:08:15.189Z,90.37
2018-10-05T03:09:18.055Z,90.12
2018-10-05T03:10:20.796Z,90.11
2018-10-05T03:11:23.673Z,89.86
2018-10-05T03:12:26.933Z,89.68
2018-10-05T03:13:29.711Z,89.89
2018-10-05T03:14:34.004Z,90.00
2018-10-05T03:15:37.891Z,89.92
2018-10-05T03:16:41.577Z,89.73
2018-10-05T03:17:44.306Z,89.83
2018-10-05T03:18:47.507Z,89.61
2018-10-05T03:19:50.393Z,89.69
2018-10-05T03:20:53.810Z,89.72
2018-10-05T03:21:56.573Z,89.70
2018-10-05T03:22:59.358Z,89.66
2018-10-05T03:24:02.519Z,89.79
2018-10-05T03:25:05.675Z,89.40
2018-10-05T03:26:08.447Z,90.08
2018-10-05T03:27:11.954Z,90.15
2018-10-05T03:28:14.727Z,90.68
2018-10-05T03:29:17.486Z,90.41
2018-10-05T03:30:20.240Z,90.35
2018-10-05T03:31:23.307Z,90.12
2018-10-05T03:32:26.119Z,90.08
2018-10-05T03:33:29.075Z,90.15
2018-10-05T03:34:31.850Z,89.92
2018-10-05T03:35:34.694Z,90.01
2018-10-05T03:36:37.455Z,89.96
2018-10-05T03:37:40.641Z,90.11
2018-10-05T03:38:43.435Z,90.45
2018-10-05T03:39:47.815Z,90.45
2018-10-05T03:40:50.684Z,90.58
2018-10-05T03:41:53.494Z,90.50
2018-10-05T03:42:56.381Z,90.46
2018-10-05T03:44:00.662Z,90.56
2018-10-05T03:45:03.419Z,90.68
2018-10-05T03:46:06.735Z,90.65
2018-10-05T03:47:09.818Z,90.81
2018-10-05T03:48:12.575Z,90.59
2018-10-05T03:49:15.626Z,90.93
2018-10-05T03:50:18.736Z,90.66
2018-10-05T03:51:22.004Z,90.63
2018-10-05T03:52:25.305Z,90.91
2018-10-05T03:53:29.120Z,90.83
2018-10-05T03:54:32.630Z,90.88
2018-10-05T03:55:35.769Z,90.64
2018-10-05T03:56:39.008Z,90.91
2018-10-05T03:57:41.840Z,90.75
2018-10-05T03:58:44.698Z,91.00
2018-10-05T03:59:47.537Z,90.98
2018-10-05T04:00:50.873Z,90.84
2018-10-05T04:01:54.107Z,91.39
2018-10-05T04:02:57.570Z,91.33
2018-10-05T04:04:00.561Z,91.57
2018-10-05T04:05:03.660Z,91.51
2018-10-05T04:06:06.543Z,91.25
2018-10-05T04:07:09.415Z,91.41
2018-10-05T04:08:12.171Z,91.51
2018-10-05T04:09:16.402Z,91.80
2018-10-05T04:10:20.242Z,91.90
2018-10-05T04:11:23.346Z,91.82
2018-10-05T04:12:26.127Z,91.56
2018-10-05T04:13:28.976Z,91.72
2018-10-05T04:14:31.723Z,91.88
2018-10-05T04:15:35.997Z,91.71
2018-10-05T04:16:40.052Z,92.04
2018-10-05T04:17:44.255Z,91.66
2018-10-05T04:18:47.157Z,91.44
2018-10-05T04:19:51.002Z,91.76
2018-10-05T04:20:54.051Z,91.70
2018-10-05T04:21:57.228Z,91.90
2018-10-05T04:23:00.014Z,91.49
2018-10-05T04:24:02.802Z,91.88
2018-10-05T04:25:06.037Z,91.76
2018-10-05T04:26:09.015Z,91.81
2018-10-05T04:27:11.956Z,91.60
2018-10-05T04:28:15.282Z,91.35
2018-10-05T04:29:18.073Z,91.88
2018-10-05T04:30:21.683Z,91.57
2018-10-05T04:31:24.458Z,91.23
2018-10-05T04:32:28.170Z,91.44
2018-10-05T04:33:30.986Z,91.45
2018-10-05T04:34:34.131Z,91.46
2018-10-05T04:35:37.227Z,91.67
2018-10-05T04:36:40.115Z,91.90
2018-10-05T04:37:42.888Z,91.96
2018-10-05T04:38:52.649Z,91.99
2018-10-05T04:39:55.421Z,91.72
2018-10-05T04:40:58.545Z,91.98
2018-10-05T04:42:01.312Z,92.11
2018-10-05T04:43:04.093Z,92.01
2018-10-05T04:44:06.858Z,91.58
2018-10-05T04:45:09.643Z,91.90
2018-10-05T04:46:12.412Z,91.49
2018-10-05T04:47:16.184Z,92.00
2018-10-05T04:48:20.788Z,92.06
2018-10-05T04:49:24.493Z,91.63
2018-10-05T04:50:28.045Z,91.77
2018-10-05T04:51:30.902Z,91.83
2018-10-05T04:52:34.450Z,91.44
2018-10-05T04:53:38.962Z,91.60
2018-10-05T04:54:41.981Z,91.58
2018-10-05T04:55:45.876Z,90.97
2018-10-05T04:56:48.949Z,91.22
2018-10-05T04:57:52.788Z,91.25
2018-10-05T04:58:55.617Z,91.17
2018-10-05T04:59:58.880Z,91.21
2018-10-05T05:01:01.647Z,91.61
2018-10-05T05:02:04.420Z,91.40
2018-10-05T05:03:08.208Z,91.31
2018-10-05T05:04:12.010Z,91.61
2018-10-05T05:05:15.518Z,91.59
2018-10-05T05:06:19.572Z,91.53
2018-10-05T05:07:23.699Z,91.54
2018-10-05T05:08:26.851Z,91.42
2018-10-05T05:09:29.666Z,91.53
2018-10-05T05:10:33.558Z,91.65
2018-10-05T05:11:36.442Z,91.78
2018-10-05T05:12:39.752Z,91.58
2018-10-05T05:13:42.536Z,91.57
2018-10-05T05:14:45.303Z,91.84
2018-10-05T05:15:48.111Z,91.75
2018-10-05T05:16:50.854Z,91.40
2018-10-05T05:17:53.902Z,91.55
2018-10-05T05:18:57.291Z,91.47
2018-10-05T05:20:00.439Z,91.53
2018-10-05T05:21:03.367Z,91.60
2018-10-05T05:22:07.724Z,91.81
2018-10-05T05:23:10.658Z,91.72
2018-10-05T05:24:13.716Z,91.27
2018-10-05T05:25:17.111Z,91.17
2018-10-05T05:26:20.513Z,91.31
2018-10-05T05:27:23.534Z,91.30
2018-10-05T05:28:26.292Z,91.31
2018-10-05T05:29:29.195Z,91.52
2018-10-05T05:30:31.994Z,91.90
2018-10-05T05:44:41.412Z,91.33
2018-10-05T05:45:44.451Z,91.03
2018-10-05T05:46:47.937Z,91.19
2018-10-05T05:47:51.188Z,91.11
2018-10-05T05:48:54.832Z,90.87
2018-10-05T05:49:58.066Z,91.39
2018-10-05T05:51:03.016Z,91.16
2018-10-05T05:52:06.192Z,91.40
2018-10-05T05:53:09.222Z,91.33
2018-10-05T05:54:12.460Z,91.78
2018-10-05T05:55:15.757Z,91.16
2018-10-05T05:56:22.820Z,91.21
2018-10-05T05:57:25.830Z,91.63
2018-10-05T05:58:28.637Z,91.24
2018-10-05T05:59:32.591Z,91.08
2018-10-05T06:00:35.427Z,91.23
2018-10-05T06:01:38.206Z,90.90
2018-10-05T06:02:42.264Z,90.94
2018-10-05T06:03:45.381Z,90.50
2018-10-05T06:04:48.212Z,90.10
2018-10-05T06:05:51.066Z,89.83
2018-10-05T06:06:55.041Z,89.76
2018-10-05T06:07:57.917Z,89.81
2018-10-05T06:09:01.004Z,89.24
2018-10-05T06:10:03.910Z,89.21
2018-10-05T06:11:06.855Z,89.09
2018-10-05T06:12:09.655Z,88.54
2018-10-05T06:13:12.996Z,88.66
2018-10-05T06:14:18.707Z,88.21
2018-10-05T06:15:22.348Z,87.51
2018-10-05T06:16:25.626Z,87.44
2018-10-05T06:17:30.725Z,87.28
2018-10-05T06:18:34.218Z,87.22
2018-10-05T06:19:37.557Z,87.21
2018-10-05T06:20:40.622Z,87.07
2018-10-05T06:21:44.034Z,86.66
2018-10-05T06:22:46.791Z,86.51
2018-10-05T06:23:49.705Z,86.51
2018-10-05T06:24:52.616Z,86.06
2018-10-05T06:25:55.473Z,85.94
2018-10-05T06:26:58.341Z,85.28
2018-10-05T06:28:01.429Z,83.94
2018-10-05T06:29:05.067Z,83.65
2018-10-05T06:30:09.527Z,82.56
2018-10-05T06:31:12.776Z,82.70
2018-10-05T06:32:15.766Z,82.78
2018-10-05T06:33:19.684Z,82.89
2018-10-05T06:34:22.860Z,83.02
2018-10-05T06:35:25.640Z,82.15
2018-10-05T06:36:28.581Z,81.66
2018-10-05T06:37:32.305Z,81.90
2018-10-05T06:38:35.471Z,81.61
2018-10-05T06:39:38.242Z,80.75
2018-10-05T06:40:42.181Z,80.81
2018-10-05T06:41:45.221Z,80.97
2018-10-05T06:42:47.986Z,79.75
2018-10-05T06:43:50.764Z,79.55
2018-10-05T06:44:53.620Z,79.74
2018-10-05T06:45:56.446Z,79.43
2018-10-05T06:47:00.050Z,78.34
2018-10-05T06:48:03.616Z,78.66
2018-10-05T06:49:06.462Z,78.30
2018-10-05T06:50:09.648Z,78.34
2018-10-05T06:51:12.462Z,77.82
2018-10-05T06:52:15.356Z,77.45
2018-10-05T06:53:18.484Z,76.71
2018-10-05T06:54:22.385Z,76.39
2018-10-05T06:55:25.249Z,75.49
2018-10-05T06:56:28.126Z,76.42
2018-10-05T06:57:30.902Z,76.01
2018-10-05T06:58:33.665Z,75.60
2018-10-05T06:59:37.464Z,75.08
2018-10-05T07:00:40.334Z,73.96
2018-10-05T07:01:43.827Z,73.98
2018-10-05T07:02:47.375Z,73.70
2018-10-05T07:03:51.389Z,72.89
2018-10-05T07:04:55.090Z,72.75
2018-10-05T07:05:58.296Z,72.91
2018-10-05T07:07:02.203Z,72.61
2018-10-05T07:08:05.388Z,72.37
2018-10-05T07:09:08.780Z,72.27
2018-10-05T07:10:11.553Z,71.75
2018-10-05T07:11:14.988Z,71.38
2018-10-05T07:12:18.397Z,71.68
2018-10-05T07:13:21.159Z,71.26
2018-10-05T07:14:23.960Z,71.09
2018-10-05T07:15:26.768Z,70.73
2018-10-05T07:16:29.830Z,71.40
2018-10-05T07:17:33.623Z,71.42
2018-10-05T07:18:37.415Z,70.14
2018-10-05T07:19:41.701Z,69.21
2018-10-05T07:20:44.462Z,68.50
2018-10-05T07:21:47.282Z,69.33
2018-10-05T07:22:51.101Z,67.49
2018-10-05T07:23:53.870Z,67.77
2018-10-05T07:24:57.843Z,68.51
2018-10-05T07:26:01.989Z,67.86
2018-10-05T07:27:05.711Z,68.51
2018-10-05T07:28:09.590Z,67.91
2018-10-05T07:29:12.504Z,67.47
2018-10-05T07:30:15.835Z,66.42
2018-10-05T07:31:20.214Z,65.42
2018-10-05T07:32:23.724Z,65.31
2018-10-05T07:33:27.511Z,65.40
2018-10-05T07:34:31.506Z,64.86
2018-10-05T07:35:35.627Z,64.47
2018-10-05T07:36:40.594Z,64.55
2018-10-05T07:37:43.703Z,64.02
2018-10-05T07:38:46.485Z,63.49
2018-10-05T07:39:49.507Z,62.79
2018-10-05T07:40:52.316Z,62.46
2018-10-05T07:41:55.857Z,63.02
2018-10-05T07:42:58.657Z,63.23
2018-10-05T07:44:01.750Z,63.07
2018-10-05T07:45:04.575Z,62.19
2018-10-05T07:46:07.331Z,62.35
2018-10-05T07:47:10.105Z,61.74
2018-10-05T07:48:14.443Z,60.96
2018-10-05T07:49:17.489Z,60.42
2018-10-05T07:50:20.693Z,60.31
2018-10-05T07:51:23.492Z,60.61
2018-10-05T07:52:26.298Z,59.84
2018-10-05T07:53:29.175Z,59.27
2018-10-05T07:54:32.943Z,57.76
2018-10-05T07:55:35.755Z,57.00
2018-10-05T07:56:39.649Z,57.03
2018-10-05T07:57:42.481Z,56.55
2018-10-05T07:58:46.323Z,57.51
2018-10-05T07:59:50.726Z,57.24
2018-10-05T08:00:54.519Z,56.58
2018-10-05T08:01:57.403Z,56.45
2018-10-05T08:03:01.697Z,55.61
2018-10-05T08:04:06.493Z,55.80
2018-10-05T08:05:10.666Z,55.06
2018-10-05T08:06:13.542Z,55.73
2018-10-05T08:07:16.627Z,55.85
2018-10-05T08:08:21.860Z,55.42
2018-10-05T08:09:25.720Z,54.79
2018-10-05T08:10:28.595Z,54.47
2018-10-05T08:11:31.609Z,54.31
2018-10-05T08:12:34.442Z,53.80
2018-10-05T08:13:38.041Z,53.57
2018-10-05T08:14:41.958Z,53.91
2018-10-05T08:15:45.267Z,53.12
2018-10-05T08:16:48.050Z,53.14
2018-10-05T08:17:50.831Z,52.73
2018-10-05T08:18:54.331Z,53.26
2018-10-05T08:19:57.141Z,52.80
2018-10-05T08:20:59.949Z,52.12
2018-10-05T08:22:05.004Z,52.21
2018-10-05T08:23:08.434Z,51.44
2018-10-05T08:24:11.216Z,51.50
2018-10-05T08:25:14.026Z,51.29
2018-10-05T08:26:16.884Z,51.73
2018-10-05T08:27:19.712Z,50.91
2018-10-05T08:28:22.956Z,51.45
2018-10-05T08:29:25.815Z,50.68
2018-10-05T08:30:28.614Z,50.45
2018-10-05T08:31:32.630Z,50.27
2018-10-05T08:32:36.301Z,49.55
2018-10-05T08:33:39.896Z,48.85
2018-10-05T08:34:43.936Z,49.44
2018-10-05T08:35:46.809Z,51.01
2018-10-05T08:36:50.390Z,50.02
2018-10-05T08:37:53.172Z,50.09
2018-10-05T08:38:56.784Z,49.04
2018-10-05T08:40:00.280Z,49.52
2018-10-05T08:41:03.381Z,48.82
2018-10-05T08:42:06.167Z,49.19
2018-10-05T08:43:08.945Z,49.34
2018-10-05T08:44:12.645Z,49.04
2018-10-05T08:45:15.433Z,51.46
2018-10-05T08:46:18.900Z,51.27
2018-10-05T08:47:22.199Z,50.93
2018-10-05T08:48:25.091Z,50.31
2018-10-05T08:49:28.705Z,48.23
2018-10-05T08:50:31.511Z,49.08
2018-10-05T08:51:34.350Z,48.75
2018-10-05T08:52:37.199Z,48.43
2018-10-05T08:53:40.002Z,48.77
2018-10-05T08:54:42.823Z,50.56
2018-10-05T08:55:45.639Z,48.38
2018-10-05T08:56:48.706Z,49.10
2018-10-05T08:57:53.314Z,49.51
2018-10-05T08:58:57.023Z,50.42
2018-10-05T09:00:01.619Z,51.32
2018-10-05T09:01:06.324Z,50.62
2018-10-05T09:02:09.094Z,51.86
2018-10-05T09:03:12.391Z,49.94
2018-10-05T09:04:15.168Z,49.73
2018-10-05T09:05:17.952Z,48.85
2018-10-05T09:06:21.076Z,50.10
2018-10-05T09:07:23.838Z,49.57
2018-10-05T09:08:27.195Z,49.41
2018-10-05T09:09:32.771Z,50.33
2018-10-05T09:10:35.559Z,49.63
2018-10-05T09:11:39.485Z,49.90
2018-10-05T09:12:42.704Z,48.71
2018-10-05T09:13:49.251Z,49.50
2018-10-05T09:14:52.717Z,48.11
2018-10-05T09:15:55.493Z,47.46
2018-10-05T09:16:59.314Z,46.99
2018-10-05T09:18:03.959Z,46.30
2018-10-05T09:19:07.222Z,47.64
2018-10-05T09:20:10.008Z,48.29
2018-10-05T09:21:12.817Z,48.60
2018-10-05T09:22:15.595Z,47.90
2018-10-05T09:23:18.516Z,48.41
2018-10-05T09:24:25.605Z,48.96
2018-10-05T09:25:28.776Z,48.23
2018-10-05T09:26:31.549Z,49.12
2018-10-05T09:27:34.367Z,49.38
2018-10-05T09:28:40.242Z,49.28
2018-10-05T09:29:43.031Z,49.39
2018-10-05T09:30:45.869Z,49.15
2018-10-05T09:31:49.052Z,48.61
2018-10-05T09:32:51.869Z,48.06
2018-10-05T09:33:56.028Z,48.37
2018-10-05T09:34:58.793Z,47.72
2018-10-05T09:36:03.442Z,48.55
2018-10-05T09:37:07.069Z,48.45
2018-10-05T09:38:10.910Z,48.63
2018-10-05T09:39:14.483Z,47.42
2018-10-05T09:40:18.081Z,47.94
2018-10-05T09:41:21.120Z,47.25
2018-10-05T09:42:24.615Z,47.39
2018-10-05T09:43:28.322Z,46.45
2018-10-05T09:44:31.515Z,46.75
2018-10-05T09:45:35.793Z,46.15
2018-10-05T09:46:38.625Z,46.83
2018-10-05T09:47:43.993Z,47.52
2018-10-05T09:48:47.660Z,47.01
2018-10-05T09:49:52.381Z,47.72
2018-10-05T09:50:55.600Z,47.12
2018-10-05T09:51:58.432Z,46.79
2018-10-05T09:53:01.287Z,48.41
2018-10-05T09:54:04.180Z,47.80
2018-10-05T09:55:06.967Z,47.49
2018-10-05T09:56:10.558Z,46.68
2018-10-05T09:57:13.712Z,47.71
2018-10-05T09:58:17.625Z,47.31
2018-10-05T09:59:23.030Z,46.71
2018-10-05T10:00:33.274Z,45.67
2018-10-05T10:01:41.522Z,45.42
2018-10-05T10:02:48.551Z,45.15
2018-10-05T10:03:56.887Z,45.79
2018-10-05T10:04:59.682Z,46.13
2018-10-05T10:06:02.811Z,44.22
2018-10-05T10:07:06.522Z,45.04
2018-10-05T10:08:16.189Z,44.62
2018-10-05T10:09:19.193Z,44.40
2018-10-05T10:10:24.077Z,44.61
2018-10-05T10:11:26.981Z,45.00
2018-10-05T10:12:29.803Z,45.64
2018-10-05T10:13:33.537Z,45.44
2018-10-05T10:14:37.711Z,44.91
2018-10-05T10:15:40.502Z,45.51
2018-10-05T10:16:44.295Z,45.35
2018-10-05T10:17:47.173Z,46.05
2018-10-05T10:18:49.951Z,44.44
2018-10-05T10:19:52.742Z,44.66
2018-10-05T10:20:57.521Z,45.04
2018-10-05T10:22:00.269Z,45.64
2018-10-05T10:23:03.205Z,44.52
2018-10-05T10:24:05.962Z,44.34
2018-10-05T10:25:08.939Z,44.95
2018-10-05T10:26:12.754Z,43.83
2018-10-05T10:27:15.872Z,42.17
2018-10-05T10:28:19.509Z,43.54
2018-10-05T10:29:23.969Z,43.67
2018-10-05T10:30:26.761Z,44.78
2018-10-05T10:43:51.441Z,44.47
2018-10-05T10:44:54.608Z,43.30
2018-10-05T10:45:58.713Z,42.27
2018-10-05T10:47:02.301Z,43.43
2018-10-05T10:48:05.599Z,43.83
2018-10-05T10:49:09.682Z,43.53
2018-10-05T10:50:12.956Z,43.08
2018-10-05T10:51:15.843Z,42.23
2018-10-05T10:52:18.610Z,42.44
2018-10-05T10:53:21.496Z,42.24
2018-10-05T10:54:24.405Z,41.88
2018-10-05T10:55:28.706Z,42.63
2018-10-05T10:56:31.547Z,41.55
2018-10-05T10:57:34.910Z,40.92
2018-10-05T10:58:37.708Z,41.40
2018-10-05T10:59:40.818Z,41.25
2018-10-05T11:00:43.709Z,40.46
2018-10-05T11:01:46.757Z,40.55
2018-10-05T11:02:50.122Z,40.48
2018-10-05T11:03:53.159Z,41.44
2018-10-05T11:04:56.043Z,40.90
2018-10-05T11:05:59.382Z,41.39
2018-10-05T11:07:02.213Z,41.33
2018-10-05T11:08:05.259Z,41.10
2018-10-05T11:09:08.051Z,41.31
2018-10-05T11:10:10.831Z,41.20
2018-10-05T11:11:13.714Z,41.04
2018-10-05T11:12:16.480Z,41.21
2018-10-05T11:13:19.260Z,39.40
2018-10-05T11:14:22.433Z,39.50
2018-10-05T11:15:25.233Z,39.53
2018-10-05T11:16:27.967Z,39.57
2018-10-05T11:17:31.199Z,38.97
2018-10-05T11:18:34.189Z,38.05
2018-10-05T11:19:37.150Z,39.33
2018-10-05T11:20:40.472Z,39.29
2018-10-05T11:21:43.323Z,40.02
2018-10-05T11:22:48.495Z,38.91
2018-10-05T11:23:52.529Z,40.15
2018-10-05T11:24:56.824Z,38.98
2018-10-05T11:26:01.668Z,39.72
2018-10-05T11:27:07.781Z,38.48
2018-10-05T11:28:10.665Z,38.80
2018-10-05T11:29:16.720Z,39.00
2018-10-05T11:30:21.553Z,38.46
2018-10-05T11:31:24.686Z,38.43
2018-10-05T11:32:28.300Z,37.52
2018-10-05T11:33:31.706Z,38.16
2018-10-05T11:34:34.576Z,38.09
2018-10-05T11:35:37.359Z,39.37
2018-10-05T11:36:40.134Z,39.84
2018-10-05T11:37:43.918Z,39.04
2018-10-05T11:38:47.364Z,39.39
2018-10-05T11:39:51.676Z,39.66
2018-10-05T11:40:54.612Z,39.09
2018-10-05T11:41:57.392Z,38.68
2018-10-05T11:43:01.181Z,38.42
2018-10-05T11:44:04.608Z,38.73
2018-10-05T11:45:07.383Z,39.28
2018-10-05T11:46:10.997Z,38.00
2018-10-05T11:47:14.450Z,38.88
2018-10-05T11:48:17.335Z,39.09
2018-10-05T11:49:20.175Z,38.71
2018-10-05T11:50:22.968Z,39.76
2018-10-05T11:51:25.708Z,39.85
2018-10-05T11:52:29.077Z,39.74
2018-10-05T11:53:31.934Z,38.16
2018-10-05T11:54:34.711Z,37.99
2018-10-05T11:55:37.532Z,38.74
2018-10-05T11:56:42.107Z,37.94
2018-10-05T11:57:44.866Z,39.10
2018-10-05T11:58:48.076Z,38.66
2018-10-05T11:59:50.966Z,39.76
2018-10-05T12:00:53.835Z,38.43
2018-10-05T12:01:56.607Z,37.82
2018-10-05T12:02:59.404Z,38.83
2018-10-05T12:04:02.531Z,38.66
2018-10-05T12:05:06.548Z,37.77
2018-10-05T12:06:10.239Z,37.76
2018-10-05T12:07:13.004Z,37.54
2018-10-05T12:08:15.842Z,38.52
2018-10-05T12:09:19.333Z,37.06
2018-10-05T12:10:23.705Z,37.05
2018-10-05T12:11:26.968Z,38.05
2018-10-05T12:12:29.723Z,37.26
2018-10-05T12:13:32.755Z,37.97
2018-10-05T12:14:35.545Z,38.75
2018-10-05T12:15:38.383Z,37.72
2018-10-05T12:16:42.093Z,37.48
2018-10-05T12:17:45.265Z,37.72
2018-10-05T12:18:49.048Z,37.65
2018-10-05T12:19:51.901Z,37.83
2018-10-05T12:20:54.719Z,38.26
2018-10-05T12:21:59.250Z,37.63
2018-10-05T12:23:02.865Z,37.47
2018-10-05T12:24:07.651Z,38.25
2018-10-05T12:25:10.410Z,37.38
2018-10-05T12:26:13.250Z,36.79
2018-10-05T12:27:16.057Z,36.53
2018-10-05T12:28:18.842Z,37.17
2018-10-05T12:29:21.624Z,36.08
2018-10-05T12:30:24.913Z,36.34
2018-10-05T12:31:28.637Z,37.01
2018-10-05T12:32:31.481Z,37.06
2018-10-05T12:33:34.469Z,37.20
2018-10-05T12:34:37.253Z,37.29
2018-10-05T12:35:40.003Z,37.27
2018-10-05T12:36:43.170Z,36.76
2018-10-05T12:37:45.943Z,36.58
2018-10-05T12:38:48.768Z,37.26
2018-10-05T12:39:51.510Z,36.47
2018-10-05T12:40:54.350Z,37.09
2018-10-05T12:41:57.147Z,37.36
2018-10-05T12:43:01.493Z,38.07
2018-10-05T12:44:04.308Z,37.83
2018-10-05T12:45:07.129Z,37.31
2018-10-05T12:46:13.441Z,37.19
2018-10-05T12:47:16.281Z,37.41
2018-10-05T12:48:20.872Z,37.23
2018-10-05T12:49:26.230Z,36.78
2018-10-05T12:50:30.395Z,36.78
2018-10-05T12:51:33.187Z,36.39
2018-10-05T12:52:36.714Z,36.97
2018-10-05T12:53:39.563Z,36.37
2018-10-05T12:54:42.345Z,37.17
2018-10-05T12:55:45.638Z,36.87
2018-10-05T12:56:48.402Z,36.55
2018-10-05T12:57:51.479Z,35.71
2018-10-05T12:58:54.353Z,35.46
2018-10-05T12:59:57.271Z,35.46
2018-10-05T13:01:00.076Z,35.48
2018-10-05T13:02:03.473Z,35.18
2018-10-05T13:03:06.246Z,36.21
2018-10-05T13:04:09.020Z,35.28
2018-10-05T13:05:11.800Z,34.61
2018-10-05T13:06:14.566Z,35.88
2018-10-05T13:07:18.112Z,36.13
2018-10-05T13:08:21.289Z,35.21
2018-10-05T13:09:24.078Z,35.51
2018-10-05T13:11:38.588Z,36.21
2018-10-05T13:12:42.210Z,35.78
2018-10-05T13:13:45.022Z,35.93
2018-10-05T13:14:48.130Z,35.96
2018-10-05T13:15:51.823Z,36.96
2018-10-05T13:16:54.581Z,36.22
2018-10-05T13:17:58.281Z,36.82
2018-10-05T13:19:01.318Z,37.56
2018-10-05T13:20:05.022Z,36.61
2018-10-05T13:21:09.054Z,36.91
2018-10-05T13:22:11.876Z,36.78
2018-10-05T13:23:14.673Z,36.97
2018-10-05T13:24:17.659Z,37.28
2018-10-05T13:25:20.458Z,36.52
2018-10-05T13:26:23.237Z,35.81
2018-10-05T13:27:26.397Z,35.85
2018-10-05T13:28:29.811Z,35.09
2018-10-05T13:29:33.160Z,34.96
2018-10-05T13:30:35.998Z,34.92
2018-10-05T13:31:38.813Z,34.84
2018-10-05T13:32:41.590Z,35.74
2018-10-05T13:34:50.284Z,34.88
2018-10-05T13:35:55.252Z,35.81
2018-10-05T13:37:02.817Z,36.08
2018-10-05T13:38:05.651Z,34.98
2018-10-05T13:39:10.978Z,35.66
2018-10-05T13:40:17.816Z,35.51
2018-10-05T13:41:20.781Z,34.34
2018-10-05T13:42:23.655Z,34.92
2018-10-05T13:43:28.868Z,35.11
2018-10-05T13:44:31.717Z,34.50
2018-10-05T13:45:35.218Z,34.46
2018-10-05T13:46:38.432Z,34.32
2018-10-05T13:47:42.661Z,33.97
2018-10-05T13:48:45.447Z,34.22
2018-10-05T13:49:48.326Z,35.16
2018-10-05T13:50:51.334Z,34.33
2018-10-05T13:51:54.370Z,33.87
2018-10-05T13:52:57.485Z,34.35
2018-10-05T13:54:00.261Z,34.84
2018-10-05T13:55:03.686Z,35.58
2018-10-05T13:56:06.711Z,35.11
2018-10-05T13:57:09.486Z,34.82
2018-10-05T13:58:13.407Z,35.90
2018-10-05T13:59:17.377Z,35.49
2018-10-05T14:00:21.928Z,35.05
2018-10-05T14:01:27.056Z,35.62
2018-10-05T14:02:33.102Z,35.07